createdAt,value
2018-11-01T00:00:34.173Z,69.05
2018-11-01T00:01:16.266Z,69.69
2018-11-01T00:01:54.331Z,69.36
2018-11-01T00:02:32.202Z,68.39
2018-11-01T00:03:10.496Z,68.35
2018-11-01T00:03:48.518Z,69.36
2018-11-01T00:04:26.421Z,68.01
2018-11-01T00:05:04.322Z,68.51
2018-11-01T00:05:43.542Z,67.98
2018-11-01T00:06:21.467Z,68.17
2018-11-01T00:06:59.354Z,69.03
2018-11-01T00:07:37.255Z,68.11
2018-11-01T00:08:15.326Z,67.71
2018-11-01T00:08:53.239Z,68.56
2018-11-01T00:09:31.212Z,67.61
2018-11-01T00:10:09.332Z,68.70
2018-11-01T00:10:47.333Z,67.46
2018-11-01T00:11:25.408Z,68.17
2018-11-01T00:12:04.243Z,67.21
2018-11-01T00:12:42.962Z,67.69
2018-11-01T00:13:20.881Z,68.22
2018-11-01T00:13:58.903Z,68.20
2018-11-01T00:14:36.905Z,67.04
2018-11-01T00:15:16.024Z,66.79
2018-11-01T00:15:54.404Z,68.01
2018-11-01T00:16:32.326Z,66.66
2018-11-01T00:17:10.538Z,67.03
2018-11-01T00:17:48.664Z,67.03
2018-11-01T00:18:26.623Z,67.73
2018-11-01T00:19:04.633Z,67.22
2018-11-01T00:19:42.593Z,67.39
2018-11-01T00:20:21.698Z,66.83
2018-11-01T00:20:59.610Z,66.65
2018-11-01T00:21:38.057Z,67.13
2018-11-01T00:22:15.962Z,66.76
2018-11-01T00:22:53.955Z,66.57
2018-11-01T00:23:32.014Z,66.65
2018-11-01T00:24:10.249Z,66.17
2018-11-01T00:24:48.068Z,66.55
2018-11-01T00:25:27.138Z,67.01
2018-11-01T00:26:04.915Z,66.32
2018-11-01T00:26:42.784Z,66.32
2018-11-01T00:27:20.743Z,66.18
2018-11-01T00:27:58.706Z,66.65
2018-11-01T00:28:36.641Z,66.47
2018-11-01T00:29:14.467Z,66.09
2018-11-01T00:29:52.410Z,66.12
2018-11-01T00:30:30.267Z,66.73
2018-11-01T00:31:08.366Z,65.76
2018-11-01T00:31:46.177Z,65.89
2018-11-01T00:32:24.076Z,65.79
2018-11-01T00:33:02.509Z,65.64
2018-11-01T00:33:40.381Z,65.55
2018-11-01T00:34:18.235Z,65.39
2018-11-01T00:34:56.195Z,65.45
2018-11-01T00:35:34.081Z,65.39
2018-11-01T00:36:12.051Z,65.26
2018-11-01T00:36:49.913Z,65.14
2018-11-01T00:37:27.936Z,64.83
2018-11-01T00:38:05.787Z,64.70
2018-11-01T00:38:43.715Z,64.50
2018-11-01T00:39:21.693Z,64.44
2018-11-01T00:39:59.614Z,64.63
2018-11-01T00:40:37.593Z,64.37
2018-11-01T00:41:15.492Z,63.95
2018-11-01T00:41:53.484Z,64.05
2018-11-01T00:42:31.501Z,63.90
2018-11-01T00:43:09.606Z,63.56
2018-11-01T00:43:47.517Z,63.35
2018-11-01T00:44:25.469Z,63.24
2018-11-01T00:45:03.394Z,63.03
2018-11-01T00:45:41.434Z,62.71
2018-11-01T00:46:19.407Z,62.21
2018-11-01T00:46:57.371Z,62.34
2018-11-01T00:47:35.471Z,62.00
2018-11-01T00:48:14.425Z,62.06
2018-11-01T00:48:52.488Z,62.10
2018-11-01T00:49:30.401Z,61.86
2018-11-01T00:50:09.736Z,61.96
2018-11-01T00:50:47.729Z,61.71
2018-11-01T00:51:25.661Z,61.68
2018-11-01T00:52:03.535Z,61.69
2018-11-01T00:52:41.861Z,61.42
2018-11-01T00:53:19.747Z,61.77
2018-11-01T00:53:57.723Z,61.44
2018-11-01T00:54:35.849Z,61.36
2018-11-01T00:55:14.607Z,61.51
2018-11-01T00:55:52.638Z,61.22
2018-11-01T00:56:30.513Z,61.33
2018-11-01T00:57:09.274Z,61.04
2018-11-01T00:57:47.303Z,61.29
2018-11-01T00:58:25.370Z,61.33
2018-11-01T00:59:03.480Z,60.97
2018-11-01T00:59:42.291Z,61.07
2018-11-01T01:00:20.656Z,60.93
2018-11-01T01:00:58.595Z,60.68
2018-11-01T01:01:36.550Z,60.93
2018-11-01T01:02:16.337Z,60.19
2018-11-01T01:02:56.010Z,60.68
2018-11-01T01:03:34.939Z,60.62
2018-11-01T01:04:16.033Z,60.48
2018-11-01T01:04:54.084Z,60.81
2018-11-01T01:05:32.013Z,60.51
2018-11-01T01:06:10.058Z,60.57
2018-11-01T01:06:47.900Z,60.68
2018-11-01T01:07:25.877Z,60.63
2018-11-01T01:08:03.787Z,60.54
2018-11-01T01:08:41.769Z,60.69
2018-11-01T01:09:19.630Z,60.57
2018-11-01T01:09:58.539Z,60.64
2018-11-01T01:10:36.448Z,59.91
2018-11-01T01:11:14.429Z,60.57
2018-11-01T01:11:52.266Z,60.56
2018-11-01T01:12:31.250Z,60.66
2018-11-01T01:13:09.226Z,60.78
2018-11-01T01:13:47.200Z,61.02
2018-11-01T01:14:25.109Z,60.87
2018-11-01T01:15:03.112Z,60.62
2018-11-01T01:15:41.093Z,60.41
2018-11-01T01:16:19.154Z,60.32
2018-11-01T01:16:57.281Z,60.39
2018-11-01T01:17:35.327Z,60.36
2018-11-01T01:21:14.373Z,59.47
2018-11-01T01:21:52.333Z,59.34
2018-11-01T01:22:30.429Z,59.41
2018-11-01T01:23:08.995Z,59.31
2018-11-01T01:23:46.952Z,59.47
2018-11-01T01:24:24.875Z,59.31
2018-11-01T01:25:03.671Z,59.34
2018-11-01T01:25:41.825Z,59.56
2018-11-01T01:26:19.687Z,59.15
2018-11-01T01:26:57.637Z,59.26
2018-11-01T01:27:35.588Z,59.14
2018-11-01T01:28:14.598Z,58.87
2018-11-01T01:28:52.700Z,58.87
2018-11-01T01:29:31.829Z,58.97
2018-11-01T01:30:11.455Z,58.79
2018-11-01T01:30:49.396Z,58.32
2018-11-01T01:31:27.307Z,58.07
2018-11-01T01:32:05.337Z,58.73
2018-11-01T01:32:43.404Z,57.27
2018-11-01T01:33:21.219Z,57.64
2018-11-01T01:33:59.527Z,57.07
2018-11-01T01:34:38.554Z,57.24
2018-11-01T01:35:16.970Z,56.56
2018-11-01T01:35:55.050Z,56.66
2018-11-01T01:36:32.880Z,56.84
2018-11-01T01:37:10.838Z,56.96
2018-11-01T01:37:48.939Z,57.10
2018-11-01T01:38:27.140Z,57.63
2018-11-01T01:39:04.999Z,57.16
2018-11-01T01:39:43.073Z,57.03
2018-11-01T01:40:21.044Z,57.11
2018-11-01T01:41:01.198Z,57.03
2018-11-01T01:41:39.332Z,57.45
2018-11-01T01:42:17.290Z,58.34
2018-11-01T01:42:56.447Z,57.28
2018-11-01T01:43:34.608Z,57.50
2018-11-01T01:44:12.434Z,56.54
2018-11-01T01:44:50.333Z,57.25
2018-11-01T01:45:28.313Z,56.47
2018-11-01T01:46:06.304Z,57.09
2018-11-01T01:46:44.303Z,56.23
2018-11-01T01:47:22.403Z,56.70
2018-11-01T01:48:00.800Z,57.06
2018-11-01T01:48:38.885Z,56.09
2018-11-01T01:49:16.780Z,55.87
2018-11-01T01:49:54.811Z,55.56
2018-11-01T01:50:33.028Z,56.35
2018-11-01T01:51:11.126Z,54.99
2018-11-01T01:51:48.923Z,55.03
2018-11-01T01:52:26.864Z,54.59
2018-11-01T01:53:04.793Z,54.91
2018-11-01T01:53:42.709Z,55.27
2018-11-01T01:54:20.718Z,54.40
2018-11-01T01:54:58.986Z,54.79
2018-11-01T01:55:36.933Z,55.55
2018-11-01T01:56:14.826Z,55.47
2018-11-01T01:56:52.910Z,55.56
2018-11-01T01:57:30.766Z,54.57
2018-11-01T01:58:08.845Z,54.72
2018-11-01T01:58:46.781Z,55.74
2018-11-01T01:59:24.797Z,55.17
2018-11-01T02:00:02.750Z,55.10
2018-11-01T02:00:40.806Z,55.03
2018-11-01T02:01:18.706Z,54.40
2018-11-01T02:01:56.610Z,55.14
2018-11-01T02:02:34.566Z,55.11
2018-11-01T02:03:12.642Z,54.75
2018-11-01T02:03:51.600Z,54.43
2018-11-01T02:04:29.603Z,54.14
2018-11-01T02:05:08.960Z,53.96
2018-11-01T02:05:46.868Z,53.94
2018-11-01T02:06:24.777Z,54.93
2018-11-01T02:07:03.802Z,54.94
2018-11-01T02:07:44.046Z,53.83
2018-11-01T02:08:21.924Z,54.99
2018-11-01T02:08:59.903Z,53.76
2018-11-01T02:09:37.845Z,54.14
2018-11-01T02:10:18.891Z,53.77
2018-11-01T02:10:56.832Z,53.90
2018-11-01T02:11:34.783Z,54.38
2018-11-01T02:12:12.903Z,53.92
2018-11-01T02:12:50.792Z,54.34
2018-11-01T02:13:29.449Z,53.72
2018-11-01T02:14:07.527Z,53.79
2018-11-01T02:14:45.407Z,53.21
2018-11-01T02:15:23.961Z,53.84
2018-11-01T02:16:02.806Z,54.36
2018-11-01T02:16:40.733Z,54.80
2018-11-01T02:17:18.723Z,53.60
2018-11-01T02:17:56.752Z,54.39
2018-11-01T02:18:34.677Z,53.24
2018-11-01T02:19:12.566Z,53.91
2018-11-01T02:19:50.470Z,53.72
2018-11-01T02:20:28.624Z,54.03
2018-11-01T02:21:06.526Z,54.83
2018-11-01T02:21:44.362Z,54.07
2018-11-01T02:22:22.346Z,54.91
2018-11-01T02:23:00.367Z,54.00
2018-11-01T02:23:38.282Z,54.41
2018-11-01T02:24:20.102Z,54.23
2018-11-01T02:24:58.002Z,53.03
2018-11-01T02:25:36.294Z,54.07
2018-11-01T02:26:14.750Z,53.18
2018-11-01T02:26:52.705Z,53.62
2018-11-01T02:27:34.258Z,53.95
2018-11-01T02:28:18.421Z,53.35
2018-11-01T02:28:56.653Z,54.68
2018-11-01T02:29:34.930Z,54.19
2018-11-01T02:30:15.412Z,53.18
2018-11-01T02:30:53.395Z,53.27
2018-11-01T02:31:31.808Z,54.11
2018-11-01T02:32:10.275Z,52.93
2018-11-01T02:32:48.541Z,53.53
2018-11-01T02:33:26.980Z,53.50
2018-11-01T02:34:05.115Z,54.79
2018-11-01T02:34:43.110Z,54.76
2018-11-01T02:35:21.864Z,54.74
2018-11-01T02:35:59.696Z,53.78
2018-11-01T02:36:38.180Z,53.88
2018-11-01T02:37:16.454Z,53.87
2018-11-01T02:37:54.553Z,54.66
2018-11-01T02:38:33.143Z,54.90
2018-11-01T02:39:14.099Z,53.69
2018-11-01T02:39:51.927Z,54.03
2018-11-01T02:40:29.865Z,53.61
2018-11-01T02:41:08.930Z,54.14
2018-11-01T02:41:47.290Z,54.85
2018-11-01T02:42:25.394Z,53.84
2018-11-01T02:43:03.577Z,54.74
2018-11-01T02:43:41.489Z,54.49
2018-11-01T02:44:19.425Z,53.76
2018-11-01T02:44:57.397Z,54.04
2018-11-01T02:45:35.382Z,52.61
2018-11-01T02:46:13.412Z,53.02
2018-11-01T02:46:51.710Z,52.96
2018-11-01T02:47:29.697Z,52.31
2018-11-01T02:48:08.953Z,52.81
2018-11-01T02:48:46.896Z,53.37
2018-11-01T02:49:24.884Z,53.79
2018-11-01T02:50:02.849Z,53.19
2018-11-01T02:50:40.857Z,53.88
2018-11-01T02:51:19.573Z,53.46
2018-11-01T02:51:57.417Z,53.46
2018-11-01T02:52:35.426Z,53.54
2018-11-01T02:53:13.584Z,53.42
2018-11-01T02:53:51.471Z,53.24
2018-11-01T02:54:29.564Z,52.94
2018-11-01T02:55:07.564Z,53.26
2018-11-01T02:55:45.681Z,52.97
2018-11-01T02:56:23.491Z,53.14
2018-11-01T02:57:01.897Z,52.61
2018-11-01T02:57:39.847Z,51.63
2018-11-01T02:58:17.773Z,52.56
2018-11-01T02:58:56.633Z,53.24
2018-11-01T02:59:34.562Z,52.03
2018-11-01T03:00:15.995Z,51.92
2018-11-01T03:00:53.902Z,51.83
2018-11-01T03:01:31.885Z,51.66
2018-11-01T03:02:10.105Z,52.09
2018-11-01T03:02:48.189Z,52.86
2018-11-01T03:03:26.103Z,52.03
2018-11-01T03:04:04.601Z,52.58
2018-11-01T03:04:42.390Z,52.95
2018-11-01T03:05:20.365Z,53.46
2018-11-01T03:05:58.673Z,52.00
2018-11-01T03:06:36.597Z,52.09
2018-11-01T03:07:14.468Z,52.64
2018-11-01T03:07:52.534Z,52.28
2018-11-01T03:08:30.534Z,52.99
2018-11-01T03:09:09.400Z,52.66
2018-11-01T03:09:47.364Z,52.70
2018-11-01T03:10:25.530Z,52.46
2018-11-01T03:11:03.357Z,52.32
2018-11-01T03:11:41.402Z,51.99
2018-11-01T03:12:20.093Z,51.16
2018-11-01T03:12:58.057Z,51.25
2018-11-01T03:13:35.999Z,52.04
2018-11-01T03:14:14.466Z,51.84
2018-11-01T03:14:52.388Z,51.09
2018-11-01T03:15:30.196Z,51.21
2018-11-01T03:16:08.575Z,50.66
2018-11-01T03:16:47.574Z,50.55
2018-11-01T03:17:25.414Z,51.27
2018-11-01T03:18:03.369Z,50.54
2018-11-01T03:18:41.555Z,50.44
2018-11-01T03:19:19.571Z,51.42
2018-11-01T03:19:57.752Z,51.09
2018-11-01T03:20:35.620Z,50.81
2018-11-01T03:21:13.888Z,50.90
2018-11-01T03:21:51.803Z,50.76
2018-11-01T03:22:29.748Z,50.65
2018-11-01T03:23:07.732Z,50.63
2018-11-01T03:23:45.657Z,51.36
2018-11-01T03:24:23.604Z,51.26
2018-11-01T03:25:01.598Z,50.39
2018-11-01T03:25:39.514Z,51.39
2018-11-01T03:26:17.546Z,51.06
2018-11-01T03:26:55.535Z,50.39
2018-11-01T03:27:33.469Z,49.89
2018-11-01T03:28:11.399Z,49.90
2018-11-01T03:28:49.241Z,50.38
2018-11-01T03:29:27.142Z,50.03
2018-11-01T03:30:05.116Z,50.71
2018-11-01T03:30:43.024Z,50.11
2018-11-01T03:31:21.015Z,50.06
2018-11-01T03:31:59.034Z,50.42
2018-11-01T03:32:36.935Z,49.40
2018-11-01T03:33:14.862Z,49.41
2018-11-01T03:33:52.818Z,50.12
2018-11-01T03:34:30.809Z,49.87
2018-11-01T03:35:09.437Z,49.19
2018-11-01T03:35:47.484Z,50.21
2018-11-01T03:36:25.613Z,50.34
2018-11-01T03:37:03.531Z,49.75
2018-11-01T03:37:41.597Z,50.05
2018-11-01T03:38:19.505Z,48.89
2018-11-01T03:38:58.383Z,48.36
2018-11-01T03:39:36.190Z,48.57
2018-11-01T03:40:15.222Z,48.36
2018-11-01T03:40:53.127Z,49.10
2018-11-01T03:41:31.168Z,48.48
2018-11-01T03:42:09.140Z,48.21
2018-11-01T03:42:47.100Z,48.07
2018-11-01T03:43:25.373Z,47.08
2018-11-01T03:44:03.466Z,47.84
2018-11-01T03:44:41.824Z,47.16
2018-11-01T03:45:19.786Z,47.61
2018-11-01T03:45:57.629Z,46.31
2018-11-01T03:46:35.673Z,47.51
2018-11-01T03:47:15.263Z,47.28
2018-11-01T03:47:53.298Z,46.44
2018-11-01T03:48:32.163Z,47.17
2018-11-01T03:49:10.345Z,47.36
2018-11-01T03:49:48.995Z,47.48
2018-11-01T03:50:27.051Z,45.79
2018-11-01T03:51:04.935Z,45.04
2018-11-01T03:51:42.771Z,45.90
2018-11-01T03:52:20.776Z,45.14
2018-11-01T03:53:04.494Z,45.93
2018-11-01T03:53:42.571Z,45.90
2018-11-01T03:54:20.740Z,46.54
2018-11-01T03:54:58.658Z,46.00
2018-11-01T03:55:36.605Z,45.79
2018-11-01T03:56:14.574Z,44.81
2018-11-01T03:56:52.558Z,45.81
2018-11-01T03:57:30.583Z,45.57
2018-11-01T03:58:08.689Z,44.91
2018-11-01T03:58:46.732Z,45.04
2018-11-01T03:59:24.608Z,45.42
2018-11-01T04:00:02.494Z,45.98
2018-11-01T04:00:40.490Z,45.94
2018-11-01T04:01:18.481Z,45.74
2018-11-01T04:01:56.419Z,45.82
2018-11-01T04:02:34.304Z,45.71
2018-11-01T04:03:12.270Z,45.28
2018-11-01T04:03:50.345Z,46.18
2018-11-01T04:04:28.555Z,45.78
2018-11-01T04:05:06.962Z,45.69
2018-11-01T04:05:44.747Z,46.29
2018-11-01T04:06:23.172Z,45.41
2018-11-01T04:07:01.086Z,45.75
2018-11-01T04:07:39.140Z,45.88
2018-11-01T04:08:17.205Z,45.78
2018-11-01T04:08:55.278Z,45.39
2018-11-01T04:09:33.291Z,46.00
2018-11-01T04:10:12.619Z,45.37
2018-11-01T04:10:50.553Z,45.73
2018-11-01T04:11:28.321Z,46.53
2018-11-01T04:12:06.520Z,45.96
2018-11-01T04:12:44.420Z,46.00
2018-11-01T04:13:23.562Z,46.99
2018-11-01T04:14:01.468Z,46.28
2018-11-01T04:14:39.394Z,46.16
2018-11-01T04:15:18.197Z,46.21
2018-11-01T04:15:56.839Z,47.05
2018-11-01T04:16:34.966Z,47.23
2018-11-01T04:17:12.940Z,46.14
2018-11-01T04:17:51.133Z,46.02
2018-11-01T04:18:29.042Z,46.30
2018-11-01T04:19:07.020Z,45.63
2018-11-01T04:19:44.916Z,45.60
2018-11-01T04:20:22.970Z,45.64
2018-11-01T04:21:00.958Z,45.75
2018-11-01T04:21:38.946Z,45.67
2018-11-01T04:22:17.394Z,45.50
2018-11-01T04:22:55.289Z,45.88
2018-11-01T04:23:33.455Z,45.29
2018-11-01T04:24:11.483Z,45.71
2018-11-01T04:24:49.427Z,45.88
2018-11-01T04:25:27.450Z,45.21
2018-11-01T04:26:05.342Z,46.20
2018-11-01T04:26:43.226Z,46.61
2018-11-01T04:27:21.298Z,46.25
2018-11-01T04:27:59.281Z,45.80
2018-11-01T04:28:37.217Z,45.98
2018-11-01T04:29:15.182Z,45.77
2018-11-01T04:29:53.250Z,45.81
2018-11-01T04:30:31.098Z,46.32
2018-11-01T04:31:09.354Z,46.36
2018-11-01T04:31:47.261Z,45.70
2018-11-01T04:32:25.252Z,45.94
2018-11-01T04:33:03.164Z,45.78
2018-11-01T04:33:41.357Z,45.48
2018-11-01T04:34:19.275Z,45.51
2018-11-01T04:34:57.175Z,46.37
2018-11-01T04:35:35.152Z,45.88
2018-11-01T04:36:13.082Z,45.65
2018-11-01T04:36:50.923Z,45.30
2018-11-01T04:37:29.088Z,45.38
2018-11-01T04:38:06.955Z,45.18
2018-11-01T04:38:44.933Z,46.14
2018-11-01T04:39:22.845Z,45.86
2018-11-01T04:40:00.660Z,46.46
2018-11-01T04:40:38.748Z,45.86
2018-11-01T04:41:16.726Z,45.80
2018-11-01T04:41:54.610Z,46.07
2018-11-01T04:42:33.677Z,46.19
2018-11-01T04:43:12.448Z,46.47
2018-11-01T04:43:50.461Z,46.32
2018-11-01T04:44:28.377Z,46.15
2018-11-01T04:45:06.396Z,46.78
2018-11-01T04:45:44.450Z,46.71
2018-11-01T04:46:22.517Z,47.11
2018-11-01T04:47:00.400Z,46.29
2018-11-01T04:47:38.451Z,46.58
2018-11-01T04:48:16.472Z,46.26
2018-11-01T04:48:54.428Z,45.70
2018-11-01T04:49:34.180Z,46.05
2018-11-01T04:50:14.315Z,46.51
2018-11-01T04:50:52.239Z,46.23
2018-11-01T04:51:30.319Z,46.07
2018-11-01T04:52:08.934Z,46.30
2018-11-01T04:52:47.254Z,46.50
2018-11-01T04:53:25.154Z,47.40
2018-11-01T04:54:03.161Z,47.01
2018-11-01T04:54:41.140Z,47.01
2018-11-01T04:55:19.064Z,46.28
2018-11-01T04:55:56.906Z,46.81
2018-11-01T04:56:35.210Z,45.76
2018-11-01T04:57:13.242Z,46.09
2018-11-01T04:57:51.202Z,45.22
2018-11-01T04:58:29.199Z,45.20
2018-11-01T04:59:07.170Z,45.29
2018-11-01T04:59:45.112Z,46.40
2018-11-01T05:00:23.073Z,46.42
2018-11-01T05:01:00.994Z,45.57
2018-11-01T05:01:38.985Z,45.50
2018-11-01T05:02:16.991Z,45.78
2018-11-01T05:02:55.722Z,45.62
2018-11-01T05:03:33.719Z,45.79
2018-11-01T05:04:11.722Z,45.65
2018-11-01T05:04:49.705Z,46.08
2018-11-01T05:05:27.769Z,45.35
2018-11-01T05:06:06.863Z,46.52
2018-11-01T05:06:44.919Z,46.60
2018-11-01T05:07:22.842Z,46.09
2018-11-01T05:08:00.779Z,47.16
2018-11-01T05:08:38.681Z,46.96
2018-11-01T05:09:16.691Z,46.03
2018-11-01T05:09:54.914Z,45.64
2018-11-01T05:10:32.871Z,46.60
2018-11-01T05:11:10.838Z,46.66
2018-11-01T05:11:50.095Z,46.61
2018-11-01T05:12:27.987Z,46.76
2018-11-01T05:13:05.960Z,46.69
2018-11-01T05:13:44.140Z,46.15
2018-11-01T05:14:25.809Z,46.18
2018-11-01T05:15:03.697Z,46.50
2018-11-01T05:15:41.672Z,45.40
2018-11-01T05:16:19.691Z,45.84
2018-11-01T05:16:57.681Z,46.21
2018-11-01T05:17:35.500Z,46.61
2018-11-01T05:21:14.643Z,45.57
2018-11-01T05:21:52.603Z,45.65
2018-11-01T05:22:30.509Z,45.37
2018-11-01T05:23:08.571Z,45.44
2018-11-01T05:23:46.635Z,46.21
2018-11-01T05:24:24.764Z,46.40
2018-11-01T05:25:02.715Z,45.92
2018-11-01T05:25:40.618Z,46.77
2018-11-01T05:26:18.434Z,46.82
2018-11-01T05:26:56.430Z,46.66
2018-11-01T05:27:34.369Z,46.67
2018-11-01T05:28:13.022Z,46.25
2018-11-01T05:28:51.066Z,45.23
2018-11-01T05:29:30.245Z,45.25
2018-11-01T05:30:09.144Z,45.42
2018-11-01T05:30:47.034Z,45.79
2018-11-01T05:31:25.711Z,45.31
2018-11-01T05:32:03.745Z,45.34
2018-11-01T05:32:41.689Z,44.79
2018-11-01T05:33:19.531Z,45.33
2018-11-01T05:33:57.506Z,45.45
2018-11-01T05:34:35.518Z,45.50
2018-11-01T05:35:13.436Z,44.70
2018-11-01T05:35:51.416Z,45.12
2018-11-01T05:36:29.313Z,45.27
2018-11-01T05:37:07.233Z,44.41
2018-11-01T05:37:45.101Z,44.83
2018-11-01T05:38:23.106Z,45.42
2018-11-01T05:39:00.996Z,45.08
2018-11-01T05:39:38.823Z,45.52
2018-11-01T05:40:16.651Z,44.68
2018-11-01T05:40:54.617Z,44.50
2018-11-01T05:41:32.546Z,45.64
2018-11-01T05:42:10.488Z,45.00
2018-11-01T05:42:48.517Z,45.79
2018-11-01T05:43:30.199Z,45.60
2018-11-01T05:44:08.245Z,45.05
2018-11-01T05:45:41.791Z,45.38
2018-11-01T05:46:19.773Z,45.53
2018-11-01T05:46:57.678Z,45.04
2018-11-01T05:47:36.134Z,45.59
2018-11-01T05:48:14.483Z,45.52
2018-11-01T05:48:52.403Z,45.45
2018-11-01T05:49:31.395Z,45.94
2018-11-01T05:50:09.701Z,46.10
2018-11-01T05:50:47.918Z,45.74
2018-11-01T05:51:25.942Z,45.94
2018-11-01T05:52:03.973Z,46.54
2018-11-01T05:52:41.927Z,46.43
2018-11-01T05:53:19.966Z,46.32
2018-11-01T05:53:57.985Z,45.75
2018-11-01T05:54:35.837Z,45.56
2018-11-01T05:55:13.788Z,46.02
2018-11-01T05:55:51.789Z,44.86
2018-11-01T05:56:29.684Z,45.84
2018-11-01T05:57:08.009Z,45.62
2018-11-01T05:57:45.899Z,45.62
2018-11-01T05:58:24.155Z,45.53
2018-11-01T05:59:02.067Z,46.09
2018-11-01T05:59:40.009Z,46.43
2018-11-01T06:00:17.957Z,45.92
2018-11-01T06:00:55.829Z,46.42
2018-11-01T06:01:36.266Z,45.95
2018-11-01T06:02:19.124Z,46.55
2018-11-01T06:02:57.080Z,45.74
2018-11-01T06:03:35.315Z,46.38
2018-11-01T06:04:13.444Z,46.73
2018-11-01T06:04:51.447Z,45.73
2018-11-01T06:05:29.510Z,45.11
2018-11-01T06:06:07.725Z,45.17
2018-11-01T06:06:45.609Z,45.25
2018-11-01T06:07:28.310Z,44.98
2018-11-01T06:08:10.604Z,45.78
2018-11-01T06:08:50.370Z,45.84
2018-11-01T06:09:32.712Z,45.82
2018-11-01T06:10:10.831Z,46.25
2018-11-01T06:10:48.810Z,46.28
2018-11-01T06:11:26.696Z,45.86
2018-11-01T06:12:04.592Z,45.44
2018-11-01T06:12:42.735Z,45.61
2018-11-01T06:13:20.762Z,45.29
2018-11-01T06:13:58.609Z,45.28
2018-11-01T06:14:36.671Z,44.84
2018-11-01T06:15:14.665Z,44.87
2018-11-01T06:15:52.572Z,44.78
2018-11-01T06:16:30.532Z,45.32
2018-11-01T06:17:08.499Z,44.84
2018-11-01T06:17:46.386Z,45.03
2018-11-01T06:18:24.362Z,44.56
2018-11-01T06:19:05.224Z,43.99
2018-11-01T06:19:43.069Z,44.75
2018-11-01T06:20:21.279Z,44.04
2018-11-01T06:20:59.234Z,45.01
2018-11-01T06:21:38.891Z,43.83
2018-11-01T06:22:16.819Z,43.40
2018-11-01T06:22:54.876Z,43.99
2018-11-01T06:23:32.768Z,44.50
2018-11-01T06:24:10.732Z,44.63
2018-11-01T06:24:48.825Z,45.59
2018-11-01T06:25:26.759Z,44.49
2018-11-01T06:26:04.670Z,45.21
2018-11-01T06:26:42.626Z,44.73
2018-11-01T06:27:20.595Z,44.18
2018-11-01T06:27:58.560Z,44.43
2018-11-01T06:28:36.435Z,44.79
2018-11-01T06:29:14.462Z,44.58
2018-11-01T06:29:52.392Z,44.79
2018-11-01T06:30:30.292Z,45.67
2018-11-01T06:31:08.336Z,45.01
2018-11-01T06:31:46.421Z,45.32
2018-11-01T06:32:24.406Z,45.63
2018-11-01T06:33:02.473Z,45.67
2018-11-01T06:33:40.406Z,46.41
2018-11-01T06:34:32.597Z,45.63
2018-11-01T06:35:19.534Z,46.23
2018-11-01T06:36:00.716Z,46.13
2018-11-01T06:36:38.746Z,45.14
2018-11-01T06:37:17.025Z,44.63
2018-11-01T06:37:55.109Z,44.96
2018-11-01T06:38:34.645Z,45.14
2018-11-01T06:39:13.153Z,44.51
2018-11-01T06:39:51.100Z,45.13
2018-11-01T06:40:29.830Z,44.93
2018-11-01T06:41:07.766Z,44.51
2018-11-01T06:41:45.873Z,45.67
2018-11-01T06:42:23.783Z,46.03
2018-11-01T06:43:01.700Z,45.66
2018-11-01T06:43:39.774Z,46.27
2018-11-01T06:44:17.655Z,45.78
2018-11-01T06:44:55.788Z,45.39
2018-11-01T06:45:34.092Z,46.27
2018-11-01T06:46:11.982Z,46.16
2018-11-01T06:46:50.513Z,46.19
2018-11-01T06:47:30.637Z,45.27
2018-11-01T06:48:09.825Z,45.32
2018-11-01T06:48:48.188Z,45.06
2018-11-01T06:49:26.321Z,45.27
2018-11-01T06:50:04.280Z,44.53
2018-11-01T06:50:42.216Z,44.59
2018-11-01T06:51:20.276Z,44.68
2018-11-01T06:51:58.248Z,45.47
2018-11-01T06:52:36.256Z,45.47
2018-11-01T06:53:14.264Z,45.19
2018-11-01T06:53:52.329Z,45.55
2018-11-01T06:54:30.321Z,45.63
2018-11-01T06:55:09.046Z,44.88
2018-11-01T06:55:48.106Z,43.90
2018-11-01T06:56:26.044Z,44.64
2018-11-01T06:57:03.938Z,44.56
2018-11-01T06:57:42.105Z,44.29
2018-11-01T06:58:20.006Z,44.82
2018-11-01T06:58:57.977Z,44.13
2018-11-01T06:59:36.171Z,44.35
2018-11-01T07:00:17.333Z,44.33
2018-11-01T07:00:56.261Z,44.42
2018-11-01T07:01:34.653Z,44.78
2018-11-01T07:02:12.660Z,45.27
2018-11-01T07:02:50.825Z,44.28
2018-11-01T07:03:28.858Z,44.16
2018-11-01T07:04:06.904Z,44.74
2018-11-01T07:04:44.777Z,45.42
2018-11-01T07:05:23.538Z,45.08
2018-11-01T07:06:01.485Z,44.37
2018-11-01T07:06:39.934Z,45.26
2018-11-01T07:07:17.933Z,44.42
2018-11-01T07:07:56.395Z,45.59
2018-11-01T07:08:34.240Z,45.90
2018-11-01T07:09:15.437Z,45.25
2018-11-01T07:09:53.426Z,45.60
2018-11-01T07:10:31.407Z,46.35
2018-11-01T07:11:09.572Z,46.10
2018-11-01T07:11:48.494Z,45.52
2018-11-01T07:12:26.356Z,45.75
2018-11-01T07:13:04.226Z,44.73
2018-11-01T07:13:43.250Z,44.59
2018-11-01T07:14:21.215Z,45.13
2018-11-01T07:14:59.232Z,44.10
2018-11-01T07:15:37.170Z,44.95
2018-11-01T07:16:15.187Z,44.77
2018-11-01T07:16:53.131Z,44.48
2018-11-01T07:17:31.245Z,45.33
2018-11-01T07:18:09.286Z,44.63
2018-11-01T07:18:47.270Z,44.56
2018-11-01T07:19:25.638Z,44.88
2018-11-01T07:20:03.553Z,45.82
2018-11-01T07:20:41.364Z,45.80
2018-11-01T07:21:19.476Z,45.75
2018-11-01T07:21:57.491Z,45.67
2018-11-01T07:22:35.745Z,46.39
2018-11-01T07:23:13.638Z,46.85
2018-11-01T07:23:52.614Z,46.59
2018-11-01T07:24:30.565Z,46.74
2018-11-01T07:25:09.452Z,45.90
2018-11-01T07:25:47.569Z,46.12
2018-11-01T07:26:25.553Z,46.50
2018-11-01T07:27:03.642Z,46.49
2018-11-01T07:27:41.552Z,45.71
2018-11-01T07:28:19.475Z,45.77
2018-11-01T07:28:57.492Z,46.62
2018-11-01T07:29:35.562Z,46.17
2018-11-01T07:30:19.403Z,46.30
2018-11-01T07:30:57.349Z,46.13
2018-11-01T07:31:36.230Z,47.01
2018-11-01T07:32:14.383Z,46.25
2018-11-01T07:32:52.357Z,46.47
2018-11-01T07:33:30.471Z,46.69
2018-11-01T07:34:08.715Z,46.58
2018-11-01T07:34:46.557Z,45.48
2018-11-01T07:35:24.533Z,46.18
2018-11-01T07:36:02.416Z,45.32
2018-11-01T07:36:40.329Z,45.32
2018-11-01T07:37:18.474Z,45.40
2018-11-01T07:37:56.637Z,45.79
2018-11-01T07:38:34.693Z,46.45
2018-11-01T07:39:13.532Z,46.33
2018-11-01T07:39:51.454Z,46.59
2018-11-01T07:40:29.280Z,47.05
2018-11-01T07:41:07.167Z,46.70
2018-11-01T07:41:45.129Z,47.39
2018-11-01T07:42:23.113Z,47.61
2018-11-01T07:43:01.734Z,47.21
2018-11-01T07:43:39.737Z,47.84
2018-11-01T07:44:17.669Z,46.91
2018-11-01T07:44:56.060Z,47.03
2018-11-01T07:45:33.826Z,46.18
2018-11-01T07:46:11.801Z,46.39
2018-11-01T07:46:51.424Z,45.72
2018-11-01T07:47:29.306Z,46.36
2018-11-01T07:48:07.207Z,46.41
2018-11-01T07:48:45.219Z,46.67
2018-11-01T07:49:23.176Z,46.29
2018-11-01T07:50:01.158Z,45.91
2018-11-01T07:50:39.000Z,46.24
2018-11-01T07:51:16.965Z,46.24
2018-11-01T07:51:54.808Z,46.19
2018-11-01T07:52:33.360Z,47.54
2018-11-01T07:53:11.320Z,46.80
2018-11-01T07:53:49.262Z,47.17
2018-11-01T07:54:27.287Z,47.07
2018-11-01T07:55:05.237Z,47.90
2018-11-01T07:55:43.048Z,47.67
2018-11-01T07:56:20.971Z,47.24
2018-11-01T07:56:58.791Z,46.86
2018-11-01T07:57:36.641Z,47.21
2018-11-01T07:58:14.592Z,47.61
2018-11-01T07:58:52.444Z,48.15
2018-11-01T07:59:30.501Z,48.07
2018-11-01T08:00:10.230Z,47.86
2018-11-01T08:00:48.121Z,47.03
2018-11-01T08:01:26.148Z,47.36
2018-11-01T08:02:04.109Z,48.04
2018-11-01T08:02:42.135Z,48.11
2018-11-01T08:03:20.018Z,47.95
2018-11-01T08:03:57.949Z,47.86
2018-11-01T08:04:35.879Z,47.36
2018-11-01T08:05:14.324Z,47.98
2018-11-01T08:05:52.380Z,47.60
2018-11-01T08:06:30.360Z,47.79
2018-11-01T08:07:08.365Z,46.64
2018-11-01T08:07:47.076Z,46.49
2018-11-01T08:08:25.130Z,46.87
2018-11-01T08:09:03.854Z,46.05
2018-11-01T08:09:41.702Z,46.65
2018-11-01T08:10:20.730Z,46.93
2018-11-01T08:10:59.452Z,46.41
2018-11-01T08:11:37.431Z,46.48
2018-11-01T08:12:15.413Z,47.45
2018-11-01T08:12:53.395Z,48.36
2018-11-01T08:13:31.598Z,48.88
2018-11-01T08:14:09.951Z,49.11
2018-11-01T08:14:47.866Z,48.50
2018-11-01T08:15:25.846Z,48.84
2018-11-01T08:16:03.757Z,49.47
2018-11-01T08:16:41.621Z,48.13
2018-11-01T08:17:19.427Z,48.99
2018-11-01T08:17:58.299Z,47.92
2018-11-01T08:18:36.093Z,48.61
2018-11-01T08:19:14.026Z,48.83
2018-11-01T08:19:52.266Z,48.14